ROMMA est une association bénévole à but non lucratif. Votre soutien est indispensable : ADHERER à ROMMA ou FAIRE un DON

Crest - (26, Drôme)

Vallée de la Drôme (315 m)   Longitude: 5°2' E   Latitude: 44°44' N Station partenaire n°62
 

Détail journalier du     <<     >>

Température Precipitation Humidité Pression Vent Dir Rafale Dir. rafale Ensol.
Heure (°C) (mm) (%) (hPa) (km/h) (km/h) (min)
01:00 17.605710167SSO19SSO0
02:00 15.506810168SSO24SSO0
03:00 15.1070101615SSO29SSO0
04:00 14.8070101611SSO23SSO0
05:00 13.307510165SSO16S0
06:00 12.108210161SE8SE0
07:00 11.908410161---6SE0
08:00 13.108310161---6SE0
09:00 16.806710162---11ENE30
10:00 18.606210167NE21NE56
11:00 20.3056101511SSO24NE60
12:00 22.6053101412SSO31SSO50
13:00 21.8055101511NE29NE18
14:00 24.905010149SSO23SSO26
15:00 25.904610138SSO27NNO51
16:00 26.704610139NE23NE60
17:00 27.204110136NNE21SSO37
18:00 27.603110126NNE18N46
19:00 27.303610128NE21NE59
20:00 26.203910126SSO23NNO22
21:00 23.9046101215SSO31SSO3
22:00 22.6051101314SSO29SSO0
23:00 21.4055101311SSO31SSO0
minuit 20.206010148SSO26SSO0

Graphique du 01-08-2019

 

Serveur OMMA